sensor_id;sensor_type;location;lat;lon;timestamp;temperature;humidity
7143;DHT22;3613;48.902;9.204;2023-12-20T00:00:20;4.80;1.00
7143;DHT22;3613;48.902;9.204;2023-12-20T00:02:48;4.90;1.00
7143;DHT22;3613;48.902;9.204;2023-12-20T00:05:14;4.70;1.00
7143;DHT22;3613;48.902;9.204;2023-12-20T00:07:42;4.70;1.00
7143;DHT22;3613;48.902;9.204;2023-12-20T00:10:10;4.70;1.00
7143;DHT22;3613;48.902;9.204;2023-12-20T00:12:40;4.70;5.50
7143;DHT22;3613;48.902;9.204;2023-12-20T00:15:09;4.70;1.00
7143;DHT22;3613;48.902;9.204;2023-12-20T00:17:34;4.60;15.20
7143;DHT22;3613;48.902;9.204;2023-12-20T00:20:02;4.70;42.30
7143;DHT22;3613;48.902;9.204;2023-12-20T00:22:28;4.60;51.10
7143;DHT22;3613;48.902;9.204;2023-12-20T00:24:54;4.60;85.10
7143;DHT22;3613;48.902;9.204;2023-12-20T00:27:19;4.70;99.90
7143;DHT22;3613;48.902;9.204;2023-12-20T00:29:45;4.70;99.90
7143;DHT22;3613;48.902;9.204;2023-12-20T00:32:13;4.60;99.90
7143;DHT22;3613;48.902;9.204;2023-12-20T00:34:41;4.60;99.90
7143;DHT22;3613;48.902;9.204;2023-12-20T00:37:09;4.60;99.90
7143;DHT22;3613;48.902;9.204;2023-12-20T00:39:37;4.60;99.90
7143;DHT22;3613;48.902;9.204;2023-12-20T00:42:03;6.20;99.90
7143;DHT22;3613;48.902;9.204;2023-12-20T00:44:29;4.60;99.90
7143;DHT22;3613;48.902;9.204;2023-12-20T00:46:54;4.50;99.90
7143;DHT22;3613;48.902;9.204;2023-12-20T00:49:22;4.50;99.90
7143;DHT22;3613;48.902;9.204;2023-12-20T00:51:50;4.80;99.90
7143;DHT22;3613;48.902;9.204;2023-12-20T00:54:20;4.50;99.90
7143;DHT22;3613;48.902;9.204;2023-12-20T00:56:46;4.50;99.90
7143;DHT22;3613;48.902;9.204;2023-12-20T00:59:11;4.50;99.90
7143;DHT22;3613;48.902;9.204;2023-12-20T01:01:40;4.50;99.90
7143;DHT22;3613;48.902;9.204;2023-12-20T01:04:08;4.50;99.90
7143;DHT22;3613;48.902;9.204;2023-12-20T01:06:33;4.50;99.90
7143;DHT22;3613;48.902;9.204;2023-12-20T01:08:59;4.50;99.90
7143;DHT22;3613;48.902;9.204;2023-12-20T01:11:24;4.50;99.90
7143;DHT22;3613;48.902;9.204;2023-12-20T01:13:50;4.50;99.90
7143;DHT22;3613;48.902;9.204;2023-12-20T01:16:15;4.50;99.90
7143;DHT22;3613;48.902;9.204;2023-12-20T01:18:43;4.50;99.90
7143;DHT22;3613;48.902;9.204;2023-12-20T01:21:09;4.60;99.90
7143;DHT22;3613;48.902;9.204;2023-12-20T01:23:37;6.80;99.90
7143;DHT22;3613;48.902;9.204;2023-12-20T01:26:05;4.60;99.90
7143;DHT22;3613;48.902;9.204;2023-12-20T01:28:33;4.60;99.90
7143;DHT22;3613;48.902;9.204;2023-12-20T01:30:58;4.70;99.90
7143;DHT22;3613;48.902;9.204;2023-12-20T01:33:26;4.60;99.90
7143;DHT22;3613;48.902;9.204;2023-12-20T01:35:52;4.60;99.90
7143;DHT22;3613;48.902;9.204;2023-12-20T01:38:17;4.50;99.90
7143;DHT22;3613;48.902;9.204;2023-12-20T01:40:44;4.60;99.90
7143;DHT22;3613;48.902;9.204;2023-12-20T01:43:10;4.60;99.90
7143;DHT22;3613;48.902;9.204;2023-12-20T01:45:37;4.60;99.90
7143;DHT22;3613;48.902;9.204;2023-12-20T01:48:06;4.60;99.90
7143;DHT22;3613;48.902;9.204;2023-12-20T01:50:36;4.60;99.90
7143;DHT22;3613;48.902;9.204;2023-12-20T01:53:02;4.60;99.90
7143;DHT22;3613;48.902;9.204;2023-12-20T01:55:31;4.60;99.90
7143;DHT22;3613;48.902;9.204;2023-12-20T01:57:59;4.60;99.90
7143;DHT22;3613;48.902;9.204;2023-12-20T02:00:26;4.70;99.90
7143;DHT22;3613;48.902;9.204;2023-12-20T02:02:55;4.60;99.90
7143;DHT22;3613;48.902;9.204;2023-12-20T02:05:25;4.60;99.90
7143;DHT22;3613;48.902;9.204;2023-12-20T02:07:51;4.60;99.90
7143;DHT22;3613;48.902;9.204;2023-12-20T02:10:16;4.60;99.90
7143;DHT22;3613;48.902;9.204;2023-12-20T02:12:45;4.60;99.90
7143;DHT22;3613;48.902;9.204;2023-12-20T02:15:10;4.60;99.90
7143;DHT22;3613;48.902;9.204;2023-12-20T02:17:36;4.60;99.90
7143;DHT22;3613;48.902;9.204;2023-12-20T02:20:04;4.60;99.90
7143;DHT22;3613;48.902;9.204;2023-12-20T02:22:31;4.60;99.90
7143;DHT22;3613;48.902;9.204;2023-12-20T02:24:59;4.60;99.90
7143;DHT22;3613;48.902;9.204;2023-12-20T02:27:28;4.70;99.90
7143;DHT22;3613;48.902;9.204;2023-12-20T02:29:54;4.70;99.90
7143;DHT22;3613;48.902;9.204;2023-12-20T02:32:20;4.80;99.90
7143;DHT22;3613;48.902;9.204;2023-12-20T02:34:47;4.80;99.90
7143;DHT22;3613;48.902;9.204;2023-12-20T02:37:15;4.90;99.90
7143;DHT22;3613;48.902;9.204;2023-12-20T02:39:41;5.00;99.90
7143;DHT22;3613;48.902;9.204;2023-12-20T02:42:11;5.10;99.90
7143;DHT22;3613;48.902;9.204;2023-12-20T02:44:39;5.10;99.90
7143;DHT22;3613;48.902;9.204;2023-12-20T02:47:07;5.30;99.90
7143;DHT22;3613;48.902;9.204;2023-12-20T02:49:35;5.30;99.90
7143;DHT22;3613;48.902;9.204;2023-12-20T02:52:01;5.30;99.90
7143;DHT22;3613;48.902;9.204;2023-12-20T02:54:26;5.40;99.90
7143;DHT22;3613;48.902;9.204;2023-12-20T02:56:52;5.40;99.90
7143;DHT22;3613;48.902;9.204;2023-12-20T02:59:17;5.40;99.90
7143;DHT22;3613;48.902;9.204;2023-12-20T03:01:46;5.40;99.90
7143;DHT22;3613;48.902;9.204;2023-12-20T03:04:15;5.40;99.90
7143;DHT22;3613;48.902;9.204;2023-12-20T03:06:40;5.40;99.90
7143;DHT22;3613;48.902;9.204;2023-12-20T03:09:06;5.40;99.90
7143;DHT22;3613;48.902;9.204;2023-12-20T03:11:34;5.40;99.90
7143;DHT22;3613;48.902;9.204;2023-12-20T03:14:01;5.40;99.90
7143;DHT22;3613;48.902;9.204;2023-12-20T03:16:27;5.50;99.90
7143;DHT22;3613;48.902;9.204;2023-12-20T03:18:56;5.80;99.90
7143;DHT22;3613;48.902;9.204;2023-12-20T03:21:24;5.30;99.90
7143;DHT22;3613;48.902;9.204;2023-12-20T03:23:52;5.30;99.90
7143;DHT22;3613;48.902;9.204;2023-12-20T03:26:20;5.30;99.90
7143;DHT22;3613;48.902;9.204;2023-12-20T03:28:48;5.30;99.90
7143;DHT22;3613;48.902;9.204;2023-12-20T03:31:14;5.30;99.90
7143;DHT22;3613;48.902;9.204;2023-12-20T03:33:40;5.30;99.90
7143;DHT22;3613;48.902;9.204;2023-12-20T03:36:09;5.20;99.90
7143;DHT22;3613;48.902;9.204;2023-12-20T03:38:35;5.20;99.90
7143;DHT22;3613;48.902;9.204;2023-12-20T03:41:01;5.20;99.90
7143;DHT22;3613;48.902;9.204;2023-12-20T03:43:26;5.20;99.90
7143;DHT22;3613;48.902;9.204;2023-12-20T03:45:52;5.20;99.90
7143;DHT22;3613;48.902;9.204;2023-12-20T03:48:20;5.20;99.90
7143;DHT22;3613;48.902;9.204;2023-12-20T03:50:45;5.20;99.90
7143;DHT22;3613;48.902;9.204;2023-12-20T03:53:13;5.20;99.90
7143;DHT22;3613;48.902;9.204;2023-12-20T03:55:39;5.20;99.90
7143;DHT22;3613;48.902;9.204;2023-12-20T03:58:07;5.20;99.90
7143;DHT22;3613;48.902;9.204;2023-12-20T04:00:32;5.20;99.90
7143;DHT22;3613;48.902;9.204;2023-12-20T04:03:03;5.20;99.90
7143;DHT22;3613;48.902;9.204;2023-12-20T04:05:28;5.20;99.90
7143;DHT22;3613;48.902;9.204;2023-12-20T04:07:59;5.20;99.90
7143;DHT22;3613;48.902;9.204;2023-12-20T04:10:25;5.20;99.90
7143;DHT22;3613;48.902;9.204;2023-12-20T04:12:50;5.20;99.90
7143;DHT22;3613;48.902;9.204;2023-12-20T04:15:16;5.10;99.90
7143;DHT22;3613;48.902;9.204;2023-12-20T04:17:42;5.10;99.90
7143;DHT22;3613;48.902;9.204;2023-12-20T04:20:08;5.10;99.90
7143;DHT22;3613;48.902;9.204;2023-12-20T04:22:36;5.10;99.90
7143;DHT22;3613;48.902;9.204;2023-12-20T04:25:01;5.10;99.90
7143;DHT22;3613;48.902;9.204;2023-12-20T04:27:27;5.10;99.90
7143;DHT22;3613;48.902;9.204;2023-12-20T04:29:55;5.10;99.90
7143;DHT22;3613;48.902;9.204;2023-12-20T04:32:21;5.00;99.90
7143;DHT22;3613;48.902;9.204;2023-12-20T04:34:46;5.00;99.90
7143;DHT22;3613;48.902;9.204;2023-12-20T04:37:12;5.00;99.90
7143;DHT22;3613;48.902;9.204;2023-12-20T04:39:37;5.00;99.90
7143;DHT22;3613;48.902;9.204;2023-12-20T04:42:05;5.00;99.90
7143;DHT22;3613;48.902;9.204;2023-12-20T04:44:31;5.00;99.90
7143;DHT22;3613;48.902;9.204;2023-12-20T04:46:59;5.00;99.90
7143;DHT22;3613;48.902;9.204;2023-12-20T04:49:25;5.00;99.90
7143;DHT22;3613;48.902;9.204;2023-12-20T04:51:50;5.00;99.90
7143;DHT22;3613;48.902;9.204;2023-12-20T04:54:16;5.00;99.90
7143;DHT22;3613;48.902;9.204;2023-12-20T04:56:44;5.10;99.90
7143;DHT22;3613;48.902;9.204;2023-12-20T04:59:12;5.10;99.90
7143;DHT22;3613;48.902;9.204;2023-12-20T05:01:40;5.10;99.90
7143;DHT22;3613;48.902;9.204;2023-12-20T05:04:10;5.10;99.90
7143;DHT22;3613;48.902;9.204;2023-12-20T05:06:36;5.10;99.90
7143;DHT22;3613;48.902;9.204;2023-12-20T05:09:04;5.20;99.90
7143;DHT22;3613;48.902;9.204;2023-12-20T05:11:31;6.10;99.90
7143;DHT22;3613;48.902;9.204;2023-12-20T05:13:59;5.10;99.90
7143;DHT22;3613;48.902;9.204;2023-12-20T05:16:30;5.20;99.90
7143;DHT22;3613;48.902;9.204;2023-12-20T05:18:55;5.20;99.90
7143;DHT22;3613;48.902;9.204;2023-12-20T05:21:28;5.20;99.90
7143;DHT22;3613;48.902;9.204;2023-12-20T05:23:54;5.20;99.90
7143;DHT22;3613;48.902;9.204;2023-12-20T05:26:19;5.20;99.90
7143;DHT22;3613;48.902;9.204;2023-12-20T05:28:45;5.30;99.90
7143;DHT22;3613;48.902;9.204;2023-12-20T05:31:10;5.30;99.90
7143;DHT22;3613;48.902;9.204;2023-12-20T05:33:36;5.30;99.90
7143;DHT22;3613;48.902;9.204;2023-12-20T05:36:02;5.30;99.90
7143;DHT22;3613;48.902;9.204;2023-12-20T05:38:30;5.30;99.90
7143;DHT22;3613;48.902;9.204;2023-12-20T05:40:56;5.30;99.90
7143;DHT22;3613;48.902;9.204;2023-12-20T05:43:22;5.30;99.90
7143;DHT22;3613;48.902;9.204;2023-12-20T05:45:48;5.30;99.90
7143;DHT22;3613;48.902;9.204;2023-12-20T05:48:16;5.40;99.90
7143;DHT22;3613;48.902;9.204;2023-12-20T05:50:41;5.30;99.90
7143;DHT22;3613;48.902;9.204;2023-12-20T05:53:07;5.40;99.90
7143;DHT22;3613;48.902;9.204;2023-12-20T05:55:35;5.40;99.90
7143;DHT22;3613;48.902;9.204;2023-12-20T05:58:01;5.40;99.90
7143;DHT22;3613;48.902;9.204;2023-12-20T06:00:26;5.40;99.90
7143;DHT22;3613;48.902;9.204;2023-12-20T06:02:52;5.40;99.90
7143;DHT22;3613;48.902;9.204;2023-12-20T06:05:22;5.40;99.90
7143;DHT22;3613;48.902;9.204;2023-12-20T06:07:48;5.40;99.90
7143;DHT22;3613;48.902;9.204;2023-12-20T06:10:16;5.40;99.90
7143;DHT22;3613;48.902;9.204;2023-12-20T06:12:41;5.60;99.90
7143;DHT22;3613;48.902;9.204;2023-12-20T06:15:07;5.50;99.90
7143;DHT22;3613;48.902;9.204;2023-12-20T06:17:33;5.50;99.90
7143;DHT22;3613;48.902;9.204;2023-12-20T06:20:00;5.50;99.90
7143;DHT22;3613;48.902;9.204;2023-12-20T06:22:26;5.60;99.90
7143;DHT22;3613;48.902;9.204;2023-12-20T06:24:54;5.50;99.90
7143;DHT22;3613;48.902;9.204;2023-12-20T06:27:20;5.50;99.90
7143;DHT22;3613;48.902;9.204;2023-12-20T06:29:45;5.60;99.90
7143;DHT22;3613;48.902;9.204;2023-12-20T06:32:11;5.50;99.90
7143;DHT22;3613;48.902;9.204;2023-12-20T06:34:37;5.50;99.90
7143;DHT22;3613;48.902;9.204;2023-12-20T06:37:03;5.50;99.90
7143;DHT22;3613;48.902;9.204;2023-12-20T06:39:33;5.50;99.90
7143;DHT22;3613;48.902;9.204;2023-12-20T06:41:59;5.50;99.90
7143;DHT22;3613;48.902;9.204;2023-12-20T06:44:27;5.50;99.90
7143;DHT22;3613;48.902;9.204;2023-12-20T06:46:53;5.60;99.90
7143;DHT22;3613;48.902;9.204;2023-12-20T06:49:18;5.60;99.90
7143;DHT22;3613;48.902;9.204;2023-12-20T06:51:44;5.60;99.90
7143;DHT22;3613;48.902;9.204;2023-12-20T06:54:09;5.60;99.90
7143;DHT22;3613;48.902;9.204;2023-12-20T06:56:37;5.60;99.90
7143;DHT22;3613;48.902;9.204;2023-12-20T06:59:06;5.70;99.90
7143;DHT22;3613;48.902;9.204;2023-12-20T07:01:34;6.70;99.90
7143;DHT22;3613;48.902;9.204;2023-12-20T07:03:59;5.70;99.90
7143;DHT22;3613;48.902;9.204;2023-12-20T07:06:25;5.70;99.90
7143;DHT22;3613;48.902;9.204;2023-12-20T07:08:53;5.70;99.90
7143;DHT22;3613;48.902;9.204;2023-12-20T07:11:18;5.60;99.90
7143;DHT22;3613;48.902;9.204;2023-12-20T07:13:44;5.70;99.90
7143;DHT22;3613;48.902;9.204;2023-12-20T07:16:09;5.60;99.90
7143;DHT22;3613;48.902;9.204;2023-12-20T07:18:37;5.60;99.90
7143;DHT22;3613;48.902;9.204;2023-12-20T07:21:05;5.70;99.90
7143;DHT22;3613;48.902;9.204;2023-12-20T07:23:33;5.60;99.90
7143;DHT22;3613;48.902;9.204;2023-12-20T07:25:59;5.60;99.90
7143;DHT22;3613;48.902;9.204;2023-12-20T07:28:24;5.60;99.90
7143;DHT22;3613;48.902;9.204;2023-12-20T07:30:52;5.60;99.90
7143;DHT22;3613;48.902;9.204;2023-12-20T07:33:18;5.60;99.90
7143;DHT22;3613;48.902;9.204;2023-12-20T07:35:43;5.60;99.90
7143;DHT22;3613;48.902;9.204;2023-12-20T07:38:10;5.50;99.90
7143;DHT22;3613;48.902;9.204;2023-12-20T07:40:37;5.50;99.90
7143;DHT22;3613;48.902;9.204;2023-12-20T07:43:04;5.60;99.90
7143;DHT22;3613;48.902;9.204;2023-12-20T07:45:30;5.70;99.90
7143;DHT22;3613;48.902;9.204;2023-12-20T07:47:55;5.50;99.90
7143;DHT22;3613;48.902;9.204;2023-12-20T07:50:21;5.50;99.90
7143;DHT22;3613;48.902;9.204;2023-12-20T07:52:46;5.40;99.90
7143;DHT22;3613;48.902;9.204;2023-12-20T07:55:12;5.30;99.90
7143;DHT22;3613;48.902;9.204;2023-12-20T07:57:37;5.20;99.90
7143;DHT22;3613;48.902;9.204;2023-12-20T08:00:06;5.10;99.90
7143;DHT22;3613;48.902;9.204;2023-12-20T08:02:34;5.00;99.90
7143;DHT22;3613;48.902;9.204;2023-12-20T08:05:02;4.90;99.90
7143;DHT22;3613;48.902;9.204;2023-12-20T08:07:30;4.80;99.90
7143;DHT22;3613;48.902;9.204;2023-12-20T08:09:55;4.80;99.90
7143;DHT22;3613;48.902;9.204;2023-12-20T08:12:24;4.80;99.90
7143;DHT22;3613;48.902;9.204;2023-12-20T08:14:53;4.70;99.90
7143;DHT22;3613;48.902;9.204;2023-12-20T08:17:19;4.70;99.90
7143;DHT22;3613;48.902;9.204;2023-12-20T08:19:44;4.70;99.90
7143;DHT22;3613;48.902;9.204;2023-12-20T08:22:10;4.70;99.90
7143;DHT22;3613;48.902;9.204;2023-12-20T08:24:36;4.60;99.90
7143;DHT22;3613;48.902;9.204;2023-12-20T08:27:02;4.60;99.90
7143;DHT22;3613;48.902;9.204;2023-12-20T08:29:28;4.60;99.90
7143;DHT22;3613;48.902;9.204;2023-12-20T08:31:55;4.60;99.90
7143;DHT22;3613;48.902;9.204;2023-12-20T08:34:21;4.50;99.90
7143;DHT22;3613;48.902;9.204;2023-12-20T08:36:47;4.50;99.90
7143;DHT22;3613;48.902;9.204;2023-12-20T08:39:12;4.50;99.90
7143;DHT22;3613;48.902;9.204;2023-12-20T08:41:40;4.60;99.90
7143;DHT22;3613;48.902;9.204;2023-12-20T08:44:06;5.70;99.90
7143;DHT22;3613;48.902;9.204;2023-12-20T08:46:32;5.10;99.90
7143;DHT22;3613;48.902;9.204;2023-12-20T08:49:00;5.50;99.90
7143;DHT22;3613;48.902;9.204;2023-12-20T08:51:29;5.40;99.90
7143;DHT22;3613;48.902;9.204;2023-12-20T08:53:54;5.20;99.90
7143;DHT22;3613;48.902;9.204;2023-12-20T08:56:20;5.00;99.90
7143;DHT22;3613;48.902;9.204;2023-12-20T08:58:46;4.90;99.90
7143;DHT22;3613;48.902;9.204;2023-12-20T09:01:15;4.80;99.90
7143;DHT22;3613;48.902;9.204;2023-12-20T09:03:43;4.70;99.90
7143;DHT22;3613;48.902;9.204;2023-12-20T09:06:08;4.60;99.90
7143;DHT22;3613;48.902;9.204;2023-12-20T09:08:34;4.60;99.90
7143;DHT22;3613;48.902;9.204;2023-12-20T09:11:02;4.60;99.90
7143;DHT22;3613;48.902;9.204;2023-12-20T09:13:30;4.60;99.90
7143;DHT22;3613;48.902;9.204;2023-12-20T09:15:58;4.70;99.90
7143;DHT22;3613;48.902;9.204;2023-12-20T09:18:24;4.90;99.90
7143;DHT22;3613;48.902;9.204;2023-12-20T09:20:50;4.70;99.90
7143;DHT22;3613;48.902;9.204;2023-12-20T09:23:16;4.80;99.90
7143;DHT22;3613;48.902;9.204;2023-12-20T09:25:42;5.00;99.90
7143;DHT22;3613;48.902;9.204;2023-12-20T09:28:10;5.20;99.90
7143;DHT22;3613;48.902;9.204;2023-12-20T09:30:36;5.30;99.90
7143;DHT22;3613;48.902;9.204;2023-12-20T09:33:05;5.50;99.90
7143;DHT22;3613;48.902;9.204;2023-12-20T09:35:32;5.80;76.40
7143;DHT22;3613;48.902;9.204;2023-12-20T09:38:00;5.90;28.20
7143;DHT22;3613;48.902;9.204;2023-12-20T09:40:26;5.70;1.00
7143;DHT22;3613;48.902;9.204;2023-12-20T09:42:57;5.60;1.00
7143;DHT22;3613;48.902;9.204;2023-12-20T09:45:23;5.60;12.00
7143;DHT22;3613;48.902;9.204;2023-12-20T09:47:53;5.70;2.30
7143;DHT22;3613;48.902;9.204;2023-12-20T09:50:22;6.00;1.00
7143;DHT22;3613;48.902;9.204;2023-12-20T09:52:51;6.50;1.00
7143;DHT22;3613;48.902;9.204;2023-12-20T09:55:18;7.00;1.00
7143;DHT22;3613;48.902;9.204;2023-12-20T09:57:47;7.20;1.00
7143;DHT22;3613;48.902;9.204;2023-12-20T10:00:15;7.40;99.90
7143;DHT22;3613;48.902;9.204;2023-12-20T10:03:00;7.30;99.90
7143;DHT22;3613;48.902;9.204;2023-12-20T10:05:32;7.40;99.90
7143;DHT22;3613;48.902;9.204;2023-12-20T10:07:59;7.40;99.90
7143;DHT22;3613;48.902;9.204;2023-12-20T10:10:27;7.50;99.90
7143;DHT22;3613;48.902;9.204;2023-12-20T10:13:05;7.50;82.20
7143;DHT22;3613;48.902;9.204;2023-12-20T10:15:34;7.40;99.90
7143;DHT22;3613;48.902;9.204;2023-12-20T10:18:01;7.40;99.90
7143;DHT22;3613;48.902;9.204;2023-12-20T10:20:30;7.10;99.90
7143;DHT22;3613;48.902;9.204;2023-12-20T10:22:59;6.90;99.90
7143;DHT22;3613;48.902;9.204;2023-12-20T10:25:26;7.00;99.90
7143;DHT22;3613;48.902;9.204;2023-12-20T10:28:15;7.00;99.90
7143;DHT22;3613;48.902;9.204;2023-12-20T10:30:44;7.00;99.90
7143;DHT22;3613;48.902;9.204;2023-12-20T10:33:10;6.80;99.90
7143;DHT22;3613;48.902;9.204;2023-12-20T10:35:38;6.80;99.90
7143;DHT22;3613;48.902;9.204;2023-12-20T10:38:07;7.00;99.90
7143;DHT22;3613;48.902;9.204;2023-12-20T10:40:35;7.20;46.50
7143;DHT22;3613;48.902;9.204;2023-12-20T10:43:03;7.50;1.00
7143;DHT22;3613;48.902;9.204;2023-12-20T10:45:31;7.80;1.00
7143;DHT22;3613;48.902;9.204;2023-12-20T10:48:02;7.80;99.90
7143;DHT22;3613;48.902;9.204;2023-12-20T10:50:31;7.80;1.00
7143;DHT22;3613;48.902;9.204;2023-12-20T10:52:57;7.60;1.00
7143;DHT22;3613;48.902;9.204;2023-12-20T10:55:26;7.50;1.00
7143;DHT22;3613;48.902;9.204;2023-12-20T10:57:52;7.50;1.00
7143;DHT22;3613;48.902;9.204;2023-12-20T11:00:18;7.60;99.90
7143;DHT22;3613;48.902;9.204;2023-12-20T11:02:45;7.70;99.90
7143;DHT22;3613;48.902;9.204;2023-12-20T11:05:36;7.80;1.00
7143;DHT22;3613;48.902;9.204;2023-12-20T11:08:14;7.80;1.00
7143;DHT22;3613;48.902;9.204;2023-12-20T11:10:55;7.80;99.90
7143;DHT22;3613;48.902;9.204;2023-12-20T11:13:53;7.70;99.90
7143;DHT22;3613;48.902;9.204;2023-12-20T11:16:22;7.70;1.00
7143;DHT22;3613;48.902;9.204;2023-12-20T11:18:47;7.70;1.00
7143;DHT22;3613;48.902;9.204;2023-12-20T11:21:16;7.70;99.90
7143;DHT22;3613;48.902;9.204;2023-12-20T11:23:42;7.60;99.90
7143;DHT22;3613;48.902;9.204;2023-12-20T11:26:10;7.60;99.90
7143;DHT22;3613;48.902;9.204;2023-12-20T11:28:38;7.50;99.90
7143;DHT22;3613;48.902;9.204;2023-12-20T11:31:05;7.50;1.00
7143;DHT22;3613;48.902;9.204;2023-12-20T11:33:37;7.40;1.00
7143;DHT22;3613;48.902;9.204;2023-12-20T11:36:03;7.30;90.80
7143;DHT22;3613;48.902;9.204;2023-12-20T11:38:38;7.20;1.00
7143;DHT22;3613;48.902;9.204;2023-12-20T11:41:18;7.00;91.20
7143;DHT22;3613;48.902;9.204;2023-12-20T11:43:44;7.00;99.90
7143;DHT22;3613;48.902;9.204;2023-12-20T11:46:10;6.90;99.90
7143;DHT22;3613;48.902;9.204;2023-12-20T11:48:37;6.80;1.00
7143;DHT22;3613;48.902;9.204;2023-12-20T11:51:09;6.80;1.00
7143;DHT22;3613;48.902;9.204;2023-12-20T11:53:35;6.80;99.90
7143;DHT22;3613;48.902;9.204;2023-12-20T11:56:03;6.70;1.00
7143;DHT22;3613;48.902;9.204;2023-12-20T11:58:31;6.60;1.00
7143;DHT22;3613;48.902;9.204;2023-12-20T12:00:57;6.50;1.00
7143;DHT22;3613;48.902;9.204;2023-12-20T12:03:22;6.50;1.00
7143;DHT22;3613;48.902;9.204;2023-12-20T12:05:50;6.60;1.00
7143;DHT22;3613;48.902;9.204;2023-12-20T12:08:19;6.70;1.00
7143;DHT22;3613;48.902;9.204;2023-12-20T12:10:45;6.80;1.00
7143;DHT22;3613;48.902;9.204;2023-12-20T12:13:11;7.00;1.00
7143;DHT22;3613;48.902;9.204;2023-12-20T12:15:39;7.00;99.90
7143;DHT22;3613;48.902;9.204;2023-12-20T12:18:05;7.20;99.90
7143;DHT22;3613;48.902;9.204;2023-12-20T12:20:31;7.20;89.30
7143;DHT22;3613;48.902;9.204;2023-12-20T12:23:06;7.40;1.00
7143;DHT22;3613;48.902;9.204;2023-12-20T12:25:35;7.40;1.00
7143;DHT22;3613;48.902;9.204;2023-12-20T12:28:05;7.50;99.90
7143;DHT22;3613;48.902;9.204;2023-12-20T12:30:33;7.70;99.90
7143;DHT22;3613;48.902;9.204;2023-12-20T12:33:02;7.80;1.00
7143;DHT22;3613;48.902;9.204;2023-12-20T12:35:30;7.80;1.00
7143;DHT22;3613;48.902;9.204;2023-12-20T12:37:59;7.60;99.90
7143;DHT22;3613;48.902;9.204;2023-12-20T12:40:25;7.60;1.00
7143;DHT22;3613;48.902;9.204;2023-12-20T12:42:51;7.70;1.00
7143;DHT22;3613;48.902;9.204;2023-12-20T12:45:17;8.30;1.00
7143;DHT22;3613;48.902;9.204;2023-12-20T12:47:42;7.80;1.00
7143;DHT22;3613;48.902;9.204;2023-12-20T12:50:08;7.70;19.10
7143;DHT22;3613;48.902;9.204;2023-12-20T12:52:34;7.60;99.90
7143;DHT22;3613;48.902;9.204;2023-12-20T12:55:03;7.40;1.00
7143;DHT22;3613;48.902;9.204;2023-12-20T12:57:32;7.40;1.00
7143;DHT22;3613;48.902;9.204;2023-12-20T13:00:00;7.50;1.00
7143;DHT22;3613;48.902;9.204;2023-12-20T13:02:25;7.40;1.00
7143;DHT22;3613;48.902;9.204;2023-12-20T13:04:53;7.30;99.90
7143;DHT22;3613;48.902;9.204;2023-12-20T13:07:19;7.30;1.00
7143;DHT22;3613;48.902;9.204;2023-12-20T13:09:45;7.40;1.00
7143;DHT22;3613;48.902;9.204;2023-12-20T13:12:10;7.30;1.00
7143;DHT22;3613;48.902;9.204;2023-12-20T13:14:36;7.40;99.90
7143;DHT22;3613;48.902;9.204;2023-12-20T13:17:04;7.10;62.10
7143;DHT22;3613;48.902;9.204;2023-12-20T13:19:31;7.10;99.90
7143;DHT22;3613;48.902;9.204;2023-12-20T13:21:59;7.10;1.00
7143;DHT22;3613;48.902;9.204;2023-12-20T13:24:25;7.20;1.00
7143;DHT22;3613;48.902;9.204;2023-12-20T13:26:51;7.30;1.00
7143;DHT22;3613;48.902;9.204;2023-12-20T13:29:19;7.30;1.00
7143;DHT22;3613;48.902;9.204;2023-12-20T13:31:47;7.30;46.20
7143;DHT22;3613;48.902;9.204;2023-12-20T13:34:12;7.30;1.00
7143;DHT22;3613;48.902;9.204;2023-12-20T13:36:38;7.20;43.90
7143;DHT22;3613;48.902;9.204;2023-12-20T13:39:06;7.10;99.90
7143;DHT22;3613;48.902;9.204;2023-12-20T13:41:34;7.00;99.90
7143;DHT22;3613;48.902;9.204;2023-12-20T13:44:00;6.90;1.00
7143;DHT22;3613;48.902;9.204;2023-12-20T13:46:29;6.80;99.90
7143;DHT22;3613;48.902;9.204;2023-12-20T13:48:54;6.80;1.00
7143;DHT22;3613;48.902;9.204;2023-12-20T13:51:20;6.60;1.00
7143;DHT22;3613;48.902;9.204;2023-12-20T13:53:46;6.60;99.90
7143;DHT22;3613;48.902;9.204;2023-12-20T13:56:14;6.50;1.00
7143;DHT22;3613;48.902;9.204;2023-12-20T13:58:40;6.30;1.00
7143;DHT22;3613;48.902;9.204;2023-12-20T14:01:09;6.30;81.70
7143;DHT22;3613;48.902;9.204;2023-12-20T14:03:37;6.20;1.00
7143;DHT22;3613;48.902;9.204;2023-12-20T14:06:03;6.20;99.90
7143;DHT22;3613;48.902;9.204;2023-12-20T14:08:29;6.10;99.90
7143;DHT22;3613;48.902;9.204;2023-12-20T14:10:54;6.00;1.00
7143;DHT22;3613;48.902;9.204;2023-12-20T14:13:25;5.90;1.00
7143;DHT22;3613;48.902;9.204;2023-12-20T14:15:50;6.00;1.00
7143;DHT22;3613;48.902;9.204;2023-12-20T14:18:16;5.90;1.00
7143;DHT22;3613;48.902;9.204;2023-12-20T14:20:42;5.80;1.00
7143;DHT22;3613;48.902;9.204;2023-12-20T14:23:08;5.80;1.00
7143;DHT22;3613;48.902;9.204;2023-12-20T14:25:41;5.70;1.00
7143;DHT22;3613;48.902;9.204;2023-12-20T14:28:07;5.70;1.00
7143;DHT22;3613;48.902;9.204;2023-12-20T14:30:32;5.60;1.00
7143;DHT22;3613;48.902;9.204;2023-12-20T14:32:59;5.50;1.00
7143;DHT22;3613;48.902;9.204;2023-12-20T14:35:27;7.40;1.00
7143;DHT22;3613;48.902;9.204;2023-12-20T14:37:52;5.40;1.00
7143;DHT22;3613;48.902;9.204;2023-12-20T14:40:21;5.30;1.00
7143;DHT22;3613;48.902;9.204;2023-12-20T14:42:46;5.20;1.00
7143;DHT22;3613;48.902;9.204;2023-12-20T14:45:15;5.10;1.00
7143;DHT22;3613;48.902;9.204;2023-12-20T14:47:44;5.20;1.00
7143;DHT22;3613;48.902;9.204;2023-12-20T14:50:10;5.10;20.70
7143;DHT22;3613;48.902;9.204;2023-12-20T14:52:43;5.20;29.80
7143;DHT22;3613;48.902;9.204;2023-12-20T14:55:08;5.10;47.70
7143;DHT22;3613;48.902;9.204;2023-12-20T14:57:34;5.00;47.40
7143;DHT22;3613;48.902;9.204;2023-12-20T14:59:59;5.00;53.00
7143;DHT22;3613;48.902;9.204;2023-12-20T15:02:25;5.00;30.00
7143;DHT22;3613;48.902;9.204;2023-12-20T15:04:53;5.00;36.50
7143;DHT22;3613;48.902;9.204;2023-12-20T15:07:21;5.00;21.50
7143;DHT22;3613;48.902;9.204;2023-12-20T15:12:17;5.00;33.20
7143;DHT22;3613;48.902;9.204;2023-12-20T15:14:42;5.00;9.20
7143;DHT22;3613;48.902;9.204;2023-12-20T15:17:10;5.00;20.40
7143;DHT22;3613;48.902;9.204;2023-12-20T15:19:36;5.00;26.00
7143;DHT22;3613;48.902;9.204;2023-12-20T15:22:01;5.00;39.70
7143;DHT22;3613;48.902;9.204;2023-12-20T15:24:29;5.00;65.60
7143;DHT22;3613;48.902;9.204;2023-12-20T15:27:06;5.00;99.90
7143;DHT22;3613;48.902;9.204;2023-12-20T15:29:34;5.00;99.90
7143;DHT22;3613;48.902;9.204;2023-12-20T15:32:02;5.00;99.90
7143;DHT22;3613;48.902;9.204;2023-12-20T15:36:58;4.90;99.90
7143;DHT22;3613;48.902;9.204;2023-12-20T15:39:23;4.90;75.90
7143;DHT22;3613;48.902;9.204;2023-12-20T15:41:51;5.00;76.00
7143;DHT22;3613;48.902;9.204;2023-12-20T15:44:17;5.00;55.30
7143;DHT22;3613;48.902;9.204;2023-12-20T15:46:43;5.00;43.30
7143;DHT22;3613;48.902;9.204;2023-12-20T15:49:09;5.00;18.50
7143;DHT22;3613;48.902;9.204;2023-12-20T15:51:41;5.00;16.30
7143;DHT22;3613;48.902;9.204;2023-12-20T15:54:07;5.00;20.00
7143;DHT22;3613;48.902;9.204;2023-12-20T15:56:34;5.00;1.60
7143;DHT22;3613;48.902;9.204;2023-12-20T15:59:05;5.10;1.00
7143;DHT22;3613;48.902;9.204;2023-12-20T16:01:50;5.10;1.00
7143;DHT22;3613;48.902;9.204;2023-12-20T16:06:42;5.20;1.00
7143;DHT22;3613;48.902;9.204;2023-12-20T16:09:09;5.20;1.00
7143;DHT22;3613;48.902;9.204;2023-12-20T16:16:29;5.20;1.00
7143;DHT22;3613;48.902;9.204;2023-12-20T16:21:21;5.20;1.00
7143;DHT22;3613;48.902;9.204;2023-12-20T16:23:49;5.30;1.00
7143;DHT22;3613;48.902;9.204;2023-12-20T16:26:15;5.30;1.00
7143;DHT22;3613;48.902;9.204;2023-12-20T16:28:40;5.20;1.00
7143;DHT22;3613;48.902;9.204;2023-12-20T16:31:06;5.20;1.00
7143;DHT22;3613;48.902;9.204;2023-12-20T16:35:58;5.20;1.00
7143;DHT22;3613;48.902;9.204;2023-12-20T16:38:23;5.20;1.00